SBRF METAR and TAF | Updated Today

SBRF METAR

Guararapes - Gilberto Freyre International Airport

Observation time: 19 min. ago

SBRF 062000Z 15005KT 9999 SCT025 BKN050 25/22 Q1013

Need help? Read our tutorial on how to read METARs or read the parsed version below.

Guararapes - Gilberto Freyre International Airport (SBRF) METAR

  • Weather conditions on Thu, 06 Oct 2022 20:00:00 +0000 (19 min. ago):
  • Present conditions: Dry
  • Clouds: Scattered at 762 meters; broken sky at 1524 meters
  • Visibility: Greater than 10 km
  • Wind: 150 degrees at 5 knots
  • Temperature: 25 celsius
  • Dew point: 22 celsius
  • Pressure: 1013 millibars
  • Remarks: None


Useful to know...

SBRF TAF

Guararapes - Gilberto Freyre International Airport

TAF SBRF 061500Z 0618/0718 13010KT 9999 SCT017 TN24/0707Z TX28/0715Z PROB30 0700/0706 5000 RA BR BKN010 RMK PHD
Observation time: 5:19 hr. ago
Need help? Read our tutorial on how to read TAFs or read the parsed version below.

Parsed version of TAF for Guararapes - Gilberto Freyre International Airport (SBRF)

  • From 06 October at 18:00 UTC, to day 07 of the month at 18:00 UTC
  • Clouds: Scattered at 518 meters
  • Visibility: Greater than 10 km
  • Wind: 130 degrees at 10
  • From 07 October at 00:00 UTC, to day 07 of the month at 06:00 UTC
    Probability of 30%
  • Clouds: Broken sky at 305 meters
  • Visibility: 5000 meters
  • Other: Rain; mist

Airports near SBRF

No airports found within 100nm radius.